sensor_id;sensor_type;location;lat;lon;timestamp;temperature;humidity
28837;DHT22;50669;50.982;11.022;2023-05-07T00:00:19;19.30;74.50
28837;DHT22;50669;50.982;11.022;2023-05-07T00:02:45;19.30;74.50
28837;DHT22;50669;50.982;11.022;2023-05-07T00:05:11;19.30;74.50
28837;DHT22;50669;50.982;11.022;2023-05-07T00:07:39;19.20;74.50
28837;DHT22;50669;50.982;11.022;2023-05-07T00:10:08;19.20;74.50
28837;DHT22;50669;50.982;11.022;2023-05-07T00:12:33;19.30;74.60
28837;DHT22;50669;50.982;11.022;2023-05-07T00:15:02;19.20;74.40
28837;DHT22;50669;50.982;11.022;2023-05-07T00:17:32;19.30;74.60
28837;DHT22;50669;50.982;11.022;2023-05-07T00:19:58;19.20;74.50
28837;DHT22;50669;50.982;11.022;2023-05-07T00:22:24;19.30;74.60
28837;DHT22;50669;50.982;11.022;2023-05-07T00:24:51;19.30;74.60
28837;DHT22;50669;50.982;11.022;2023-05-07T00:27:17;19.20;74.50
28837;DHT22;50669;50.982;11.022;2023-05-07T00:29:43;19.20;74.50
28837;DHT22;50669;50.982;11.022;2023-05-07T00:32:14;19.20;74.60
28837;DHT22;50669;50.982;11.022;2023-05-07T00:34:40;19.20;74.60
28837;DHT22;50669;50.982;11.022;2023-05-07T00:37:05;19.20;74.60
28837;DHT22;50669;50.982;11.022;2023-05-07T00:39:34;19.20;74.60
28837;DHT22;50669;50.982;11.022;2023-05-07T00:42:02;19.20;74.60
28837;DHT22;50669;50.982;11.022;2023-05-07T00:44:28;19.20;74.60
28837;DHT22;50669;50.982;11.022;2023-05-07T00:46:59;19.20;74.60
28837;DHT22;50669;50.982;11.022;2023-05-07T00:49:37;19.20;74.60
28837;DHT22;50669;50.982;11.022;2023-05-07T00:52:03;19.20;74.60
28837;DHT22;50669;50.982;11.022;2023-05-07T00:54:30;19.20;74.60
28837;DHT22;50669;50.982;11.022;2023-05-07T00:56:56;19.20;74.70
28837;DHT22;50669;50.982;11.022;2023-05-07T00:59:22;19.20;74.70
28837;DHT22;50669;50.982;11.022;2023-05-07T01:01:50;19.20;74.70
28837;DHT22;50669;50.982;11.022;2023-05-07T01:04:15;19.20;74.70
28837;DHT22;50669;50.982;11.022;2023-05-07T01:06:41;19.20;74.70
28837;DHT22;50669;50.982;11.022;2023-05-07T01:09:09;19.20;74.70
28837;DHT22;50669;50.982;11.022;2023-05-07T01:11:35;19.20;74.70
28837;DHT22;50669;50.982;11.022;2023-05-07T01:14:01;19.20;74.70
28837;DHT22;50669;50.982;11.022;2023-05-07T01:16:27;19.20;74.80
28837;DHT22;50669;50.982;11.022;2023-05-07T01:18:53;19.20;74.70
28837;DHT22;50669;50.982;11.022;2023-05-07T01:21:26;19.20;74.70
28837;DHT22;50669;50.982;11.022;2023-05-07T01:23:58;19.20;74.70
28837;DHT22;50669;50.982;11.022;2023-05-07T01:26:23;19.20;74.80
28837;DHT22;50669;50.982;11.022;2023-05-07T01:28:49;19.20;74.80
28837;DHT22;50669;50.982;11.022;2023-05-07T01:31:16;19.20;74.80
28837;DHT22;50669;50.982;11.022;2023-05-07T01:33:44;19.20;74.80
28837;DHT22;50669;50.982;11.022;2023-05-07T01:36:12;19.20;74.80
28837;DHT22;50669;50.982;11.022;2023-05-07T01:38:39;19.20;74.70
28837;DHT22;50669;50.982;11.022;2023-05-07T01:41:06;19.20;74.90
28837;DHT22;50669;50.982;11.022;2023-05-07T01:43:32;19.20;74.80
28837;DHT22;50669;50.982;11.022;2023-05-07T01:45:58;19.10;74.80
28837;DHT22;50669;50.982;11.022;2023-05-07T01:48:25;19.20;75.60
28837;DHT22;50669;50.982;11.022;2023-05-07T01:50:51;19.20;74.90
28837;DHT22;50669;50.982;11.022;2023-05-07T01:53:20;19.10;74.80
28837;DHT22;50669;50.982;11.022;2023-05-07T01:55:48;19.20;74.90
28837;DHT22;50669;50.982;11.022;2023-05-07T01:58:13;19.10;74.80
28837;DHT22;50669;50.982;11.022;2023-05-07T02:00:42;19.10;74.80
28837;DHT22;50669;50.982;11.022;2023-05-07T02:03:08;19.20;74.90
28837;DHT22;50669;50.982;11.022;2023-05-07T02:05:34;19.10;74.80
28837;DHT22;50669;50.982;11.022;2023-05-07T02:07:59;19.10;74.80
28837;DHT22;50669;50.982;11.022;2023-05-07T02:10:27;19.10;74.80
28837;DHT22;50669;50.982;11.022;2023-05-07T02:12:55;19.10;74.80
28837;DHT22;50669;50.982;11.022;2023-05-07T02:15:21;19.20;74.90
28837;DHT22;50669;50.982;11.022;2023-05-07T02:18:06;19.10;74.90
28837;DHT22;50669;50.982;11.022;2023-05-07T02:20:32;19.10;75.70
28837;DHT22;50669;50.982;11.022;2023-05-07T02:22:58;19.10;74.90
28837;DHT22;50669;50.982;11.022;2023-05-07T02:25:23;19.10;74.90
28837;DHT22;50669;50.982;11.022;2023-05-07T02:27:51;19.10;75.00
28837;DHT22;50669;50.982;11.022;2023-05-07T02:30:17;19.10;74.90
28837;DHT22;50669;50.982;11.022;2023-05-07T02:32:43;19.10;74.90
28837;DHT22;50669;50.982;11.022;2023-05-07T02:35:09;19.10;74.90
28837;DHT22;50669;50.982;11.022;2023-05-07T02:37:34;19.10;74.90
28837;DHT22;50669;50.982;11.022;2023-05-07T02:40:00;19.10;74.90
28837;DHT22;50669;50.982;11.022;2023-05-07T02:42:26;19.10;75.00
28837;DHT22;50669;50.982;11.022;2023-05-07T02:44:51;19.10;75.00
28837;DHT22;50669;50.982;11.022;2023-05-07T02:47:18;19.10;75.00
28837;DHT22;50669;50.982;11.022;2023-05-07T02:49:43;19.10;74.90
28837;DHT22;50669;50.982;11.022;2023-05-07T02:52:11;19.10;75.00
28837;DHT22;50669;50.982;11.022;2023-05-07T02:54:37;19.10;75.00
28837;DHT22;50669;50.982;11.022;2023-05-07T02:57:05;19.10;75.00
28837;DHT22;50669;50.982;11.022;2023-05-07T02:59:30;19.10;75.00
28837;DHT22;50669;50.982;11.022;2023-05-07T03:01:56;19.10;75.00
28837;DHT22;50669;50.982;11.022;2023-05-07T03:04:22;19.10;75.00
28837;DHT22;50669;50.982;11.022;2023-05-07T03:06:49;19.10;75.00
28837;DHT22;50669;50.982;11.022;2023-05-07T03:09:17;19.10;75.00
28837;DHT22;50669;50.982;11.022;2023-05-07T03:11:46;19.10;75.10
28837;DHT22;50669;50.982;11.022;2023-05-07T03:14:11;19.10;75.00
28837;DHT22;50669;50.982;11.022;2023-05-07T03:16:38;19.10;75.10
28837;DHT22;50669;50.982;11.022;2023-05-07T03:19:06;19.00;74.90
28837;DHT22;50669;50.982;11.022;2023-05-07T03:21:34;19.10;75.10
28837;DHT22;50669;50.982;11.022;2023-05-07T03:24:00;19.10;75.00
28837;DHT22;50669;50.982;11.022;2023-05-07T03:26:26;19.10;75.10
28837;DHT22;50669;50.982;11.022;2023-05-07T03:28:54;19.10;75.00
28837;DHT22;50669;50.982;11.022;2023-05-07T03:31:20;19.10;75.00
28837;DHT22;50669;50.982;11.022;2023-05-07T03:33:53;19.10;75.10
28837;DHT22;50669;50.982;11.022;2023-05-07T03:36:20;19.10;75.10
28837;DHT22;50669;50.982;11.022;2023-05-07T03:38:49;19.10;75.10
28837;DHT22;50669;50.982;11.022;2023-05-07T03:41:15;19.10;75.20
28837;DHT22;50669;50.982;11.022;2023-05-07T03:43:40;19.10;75.20
28837;DHT22;50669;50.982;11.022;2023-05-07T03:46:06;19.10;75.20
28837;DHT22;50669;50.982;11.022;2023-05-07T03:48:32;19.00;75.00
28837;DHT22;50669;50.982;11.022;2023-05-07T03:50:58;19.10;75.20
28837;DHT22;50669;50.982;11.022;2023-05-07T03:53:24;19.00;75.10
28837;DHT22;50669;50.982;11.022;2023-05-07T03:55:50;19.00;75.10
28837;DHT22;50669;50.982;11.022;2023-05-07T03:58:18;19.00;75.10
28837;DHT22;50669;50.982;11.022;2023-05-07T04:00:43;19.10;75.20
28837;DHT22;50669;50.982;11.022;2023-05-07T04:03:11;19.00;75.20
28837;DHT22;50669;50.982;11.022;2023-05-07T04:05:37;19.00;75.10
28837;DHT22;50669;50.982;11.022;2023-05-07T04:08:05;19.00;75.90
28837;DHT22;50669;50.982;11.022;2023-05-07T04:10:31;19.00;75.10
28837;DHT22;50669;50.982;11.022;2023-05-07T04:12:57;19.00;75.10
28837;DHT22;50669;50.982;11.022;2023-05-07T04:15:23;19.00;75.20
28837;DHT22;50669;50.982;11.022;2023-05-07T04:17:49;19.00;75.20
28837;DHT22;50669;50.982;11.022;2023-05-07T04:20:16;19.00;75.10
28837;DHT22;50669;50.982;11.022;2023-05-07T04:22:42;19.00;75.20
28837;DHT22;50669;50.982;11.022;2023-05-07T04:25:11;19.00;75.20
28837;DHT22;50669;50.982;11.022;2023-05-07T04:27:36;19.00;75.20
28837;DHT22;50669;50.982;11.022;2023-05-07T04:30:03;19.00;75.20
28837;DHT22;50669;50.982;11.022;2023-05-07T04:32:29;19.00;75.20
28837;DHT22;50669;50.982;11.022;2023-05-07T04:35:00;19.00;75.20
28837;DHT22;50669;50.982;11.022;2023-05-07T04:37:28;19.00;75.20
28837;DHT22;50669;50.982;11.022;2023-05-07T04:39:56;19.00;75.20
28837;DHT22;50669;50.982;11.022;2023-05-07T04:42:22;19.00;75.20
28837;DHT22;50669;50.982;11.022;2023-05-07T04:44:53;19.00;75.20
28837;DHT22;50669;50.982;11.022;2023-05-07T04:47:21;19.00;75.20
28837;DHT22;50669;50.982;11.022;2023-05-07T04:49:46;19.00;75.20
28837;DHT22;50669;50.982;11.022;2023-05-07T04:52:14;19.00;75.20
28837;DHT22;50669;50.982;11.022;2023-05-07T04:54:40;19.00;75.20
28837;DHT22;50669;50.982;11.022;2023-05-07T04:57:06;19.00;75.20
28837;DHT22;50669;50.982;11.022;2023-05-07T04:59:32;19.00;75.30
28837;DHT22;50669;50.982;11.022;2023-05-07T05:02:00;19.00;75.20
28837;DHT22;50669;50.982;11.022;2023-05-07T05:04:29;19.00;75.20
28837;DHT22;50669;50.982;11.022;2023-05-07T05:06:54;19.00;75.30
28837;DHT22;50669;50.982;11.022;2023-05-07T05:09:20;19.00;75.30
28837;DHT22;50669;50.982;11.022;2023-05-07T05:11:46;19.00;75.30
28837;DHT22;50669;50.982;11.022;2023-05-07T05:14:11;18.90;75.20
28837;DHT22;50669;50.982;11.022;2023-05-07T05:16:37;19.00;75.30
28837;DHT22;50669;50.982;11.022;2023-05-07T05:19:02;19.00;75.30
28837;DHT22;50669;50.982;11.022;2023-05-07T05:21:28;19.00;75.30
28837;DHT22;50669;50.982;11.022;2023-05-07T05:23:54;19.00;75.30
28837;DHT22;50669;50.982;11.022;2023-05-07T05:26:22;19.00;75.20
28837;DHT22;50669;50.982;11.022;2023-05-07T05:28:49;18.90;75.20
28837;DHT22;50669;50.982;11.022;2023-05-07T05:31:17;19.00;75.30
28837;DHT22;50669;50.982;11.022;2023-05-07T05:33:45;18.90;75.20
28837;DHT22;50669;50.982;11.022;2023-05-07T05:36:13;19.00;75.30
28837;DHT22;50669;50.982;11.022;2023-05-07T05:38:39;19.00;75.30
28837;DHT22;50669;50.982;11.022;2023-05-07T05:41:07;19.00;75.30
28837;DHT22;50669;50.982;11.022;2023-05-07T05:43:33;19.00;75.40
28837;DHT22;50669;50.982;11.022;2023-05-07T05:45:59;19.00;75.20
28837;DHT22;50669;50.982;11.022;2023-05-07T05:48:25;18.90;75.20
28837;DHT22;50669;50.982;11.022;2023-05-07T05:50:51;19.00;75.30
28837;DHT22;50669;50.982;11.022;2023-05-07T05:53:17;19.00;75.40
28837;DHT22;50669;50.982;11.022;2023-05-07T05:55:42;19.00;75.40
28837;DHT22;50669;50.982;11.022;2023-05-07T05:58:10;19.00;75.40
28837;DHT22;50669;50.982;11.022;2023-05-07T06:00:36;18.90;75.20
28837;DHT22;50669;50.982;11.022;2023-05-07T06:03:04;19.00;75.40
28837;DHT22;50669;50.982;11.022;2023-05-07T06:05:29;18.90;75.30
28837;DHT22;50669;50.982;11.022;2023-05-07T06:07:58;19.00;75.40
28837;DHT22;50669;50.982;11.022;2023-05-07T06:10:23;19.00;75.40
28837;DHT22;50669;50.982;11.022;2023-05-07T06:12:49;19.00;75.40
28837;DHT22;50669;50.982;11.022;2023-05-07T06:15:15;18.90;75.30
28837;DHT22;50669;50.982;11.022;2023-05-07T06:17:40;18.90;75.30
28837;DHT22;50669;50.982;11.022;2023-05-07T06:20:07;18.90;75.30
28837;DHT22;50669;50.982;11.022;2023-05-07T06:22:32;18.90;75.40
28837;DHT22;50669;50.982;11.022;2023-05-07T06:24:58;18.90;75.40
28837;DHT22;50669;50.982;11.022;2023-05-07T06:27:24;18.90;75.40
28837;DHT22;50669;50.982;11.022;2023-05-07T06:29:50;18.90;75.30
28837;DHT22;50669;50.982;11.022;2023-05-07T06:32:15;18.90;75.40
28837;DHT22;50669;50.982;11.022;2023-05-07T06:34:42;18.90;76.10
28837;DHT22;50669;50.982;11.022;2023-05-07T06:37:08;18.90;75.40
28837;DHT22;50669;50.982;11.022;2023-05-07T06:39:36;18.90;75.40
28837;DHT22;50669;50.982;11.022;2023-05-07T06:42:02;18.90;75.40
28837;DHT22;50669;50.982;11.022;2023-05-07T06:44:30;18.90;75.40
28837;DHT22;50669;50.982;11.022;2023-05-07T06:46:56;18.90;75.30
28837;DHT22;50669;50.982;11.022;2023-05-07T06:49:24;18.90;75.30
28837;DHT22;50669;50.982;11.022;2023-05-07T06:51:49;18.90;75.40
28837;DHT22;50669;50.982;11.022;2023-05-07T06:54:18;18.90;75.40
28837;DHT22;50669;50.982;11.022;2023-05-07T06:56:44;18.90;75.40
28837;DHT22;50669;50.982;11.022;2023-05-07T06:59:09;18.90;75.40
28837;DHT22;50669;50.982;11.022;2023-05-07T07:01:37;18.90;75.40
28837;DHT22;50669;50.982;11.022;2023-05-07T07:04:05;18.90;75.40
28837;DHT22;50669;50.982;11.022;2023-05-07T07:06:33;18.90;75.40
28837;DHT22;50669;50.982;11.022;2023-05-07T07:09:01;18.90;75.40
28837;DHT22;50669;50.982;11.022;2023-05-07T07:11:29;18.90;75.40
28837;DHT22;50669;50.982;11.022;2023-05-07T07:13:55;18.90;75.40
28837;DHT22;50669;50.982;11.022;2023-05-07T07:16:22;18.90;75.40
28837;DHT22;50669;50.982;11.022;2023-05-07T07:18:50;18.90;75.40
28837;DHT22;50669;50.982;11.022;2023-05-07T07:21:15;18.90;75.30
28837;DHT22;50669;50.982;11.022;2023-05-07T07:23:41;18.90;75.40
28837;DHT22;50669;50.982;11.022;2023-05-07T07:26:07;18.90;75.40
28837;DHT22;50669;50.982;11.022;2023-05-07T07:28:32;18.90;75.40
28837;DHT22;50669;50.982;11.022;2023-05-07T07:31:02;18.90;75.40
28837;DHT22;50669;50.982;11.022;2023-05-07T07:33:28;18.90;75.40
28837;DHT22;50669;50.982;11.022;2023-05-07T07:35:55;18.90;75.40
28837;DHT22;50669;50.982;11.022;2023-05-07T07:38:23;18.90;75.40
28837;DHT22;50669;50.982;11.022;2023-05-07T07:40:49;18.90;75.40
28837;DHT22;50669;50.982;11.022;2023-05-07T07:43:15;18.90;75.40
28837;DHT22;50669;50.982;11.022;2023-05-07T07:45:40;18.90;75.40
28837;DHT22;50669;50.982;11.022;2023-05-07T07:48:06;18.90;75.40
28837;DHT22;50669;50.982;11.022;2023-05-07T07:50:34;18.90;75.50
28837;DHT22;50669;50.982;11.022;2023-05-07T07:52:59;18.90;75.40
28837;DHT22;50669;50.982;11.022;2023-05-07T07:55:25;18.90;75.40
28837;DHT22;50669;50.982;11.022;2023-05-07T07:57:54;18.90;75.40
28837;DHT22;50669;50.982;11.022;2023-05-07T08:00:23;18.90;75.40
28837;DHT22;50669;50.982;11.022;2023-05-07T08:02:51;18.90;75.40
28837;DHT22;50669;50.982;11.022;2023-05-07T08:05:19;18.90;75.50
28837;DHT22;50669;50.982;11.022;2023-05-07T08:07:44;18.90;75.40
28837;DHT22;50669;50.982;11.022;2023-05-07T08:10:11;18.90;75.50
28837;DHT22;50669;50.982;11.022;2023-05-07T08:12:49;18.90;75.40
28837;DHT22;50669;50.982;11.022;2023-05-07T08:15:15;18.90;75.50
28837;DHT22;50669;50.982;11.022;2023-05-07T08:17:43;18.90;75.40
28837;DHT22;50669;50.982;11.022;2023-05-07T08:20:09;18.90;75.40
28837;DHT22;50669;50.982;11.022;2023-05-07T08:22:37;18.90;76.10
28837;DHT22;50669;50.982;11.022;2023-05-07T08:25:03;18.90;75.40
28837;DHT22;50669;50.982;11.022;2023-05-07T08:27:29;18.90;75.50
28837;DHT22;50669;50.982;11.022;2023-05-07T08:29:55;18.90;75.40
28837;DHT22;50669;50.982;11.022;2023-05-07T08:32:21;18.80;75.40
28837;DHT22;50669;50.982;11.022;2023-05-07T08:34:47;18.90;75.50
28837;DHT22;50669;50.982;11.022;2023-05-07T08:37:13;18.90;75.50
28837;DHT22;50669;50.982;11.022;2023-05-07T08:39:38;18.90;75.50
28837;DHT22;50669;50.982;11.022;2023-05-07T08:42:04;18.90;75.40
28837;DHT22;50669;50.982;11.022;2023-05-07T08:44:34;18.90;75.50
28837;DHT22;50669;50.982;11.022;2023-05-07T08:47:06;18.80;75.40
28837;DHT22;50669;50.982;11.022;2023-05-07T08:49:33;18.90;75.40
28837;DHT22;50669;50.982;11.022;2023-05-07T08:51:59;18.90;75.40
28837;DHT22;50669;50.982;11.022;2023-05-07T08:54:26;18.90;75.40
28837;DHT22;50669;50.982;11.022;2023-05-07T08:56:52;18.90;75.40
28837;DHT22;50669;50.982;11.022;2023-05-07T08:59:20;18.90;75.40
28837;DHT22;50669;50.982;11.022;2023-05-07T09:01:46;18.90;75.50
28837;DHT22;50669;50.982;11.022;2023-05-07T09:04:12;18.90;75.40
28837;DHT22;50669;50.982;11.022;2023-05-07T09:06:38;18.90;75.50
28837;DHT22;50669;50.982;11.022;2023-05-07T09:09:09;18.90;75.50
28837;DHT22;50669;50.982;11.022;2023-05-07T09:11:34;18.90;75.40
28837;DHT22;50669;50.982;11.022;2023-05-07T09:14:00;18.90;75.40
28837;DHT22;50669;50.982;11.022;2023-05-07T09:16:31;18.90;75.40
28837;DHT22;50669;50.982;11.022;2023-05-07T09:18:58;18.90;75.40
28837;DHT22;50669;50.982;11.022;2023-05-07T09:21:24;18.90;75.40
28837;DHT22;50669;50.982;11.022;2023-05-07T09:23:52;18.90;75.40
28837;DHT22;50669;50.982;11.022;2023-05-07T09:26:22;18.90;75.40
28837;DHT22;50669;50.982;11.022;2023-05-07T09:28:52;18.90;75.40
28837;DHT22;50669;50.982;11.022;2023-05-07T09:31:18;18.90;75.40
28837;DHT22;50669;50.982;11.022;2023-05-07T09:33:43;18.90;75.40
28837;DHT22;50669;50.982;11.022;2023-05-07T09:36:12;18.90;75.30
28837;DHT22;50669;50.982;11.022;2023-05-07T09:38:38;18.90;75.40
28837;DHT22;50669;50.982;11.022;2023-05-07T09:43:32;18.90;75.40
28837;DHT22;50669;50.982;11.022;2023-05-07T09:46:13;18.90;75.40
28837;DHT22;50669;50.982;11.022;2023-05-07T09:48:43;18.90;75.40
28837;DHT22;50669;50.982;11.022;2023-05-07T09:51:34;18.90;75.40
28837;DHT22;50669;50.982;11.022;2023-05-07T09:54:04;18.90;75.40
28837;DHT22;50669;50.982;11.022;2023-05-07T09:56:30;18.90;75.40
28837;DHT22;50669;50.982;11.022;2023-05-07T09:59:01;18.90;75.40
28837;DHT22;50669;50.982;11.022;2023-05-07T10:01:30;18.90;75.40
28837;DHT22;50669;50.982;11.022;2023-05-07T10:04:01;18.90;75.40
28837;DHT22;50669;50.982;11.022;2023-05-07T10:06:27;18.90;75.40
28837;DHT22;50669;50.982;11.022;2023-05-07T10:08:54;18.80;75.40
28837;DHT22;50669;50.982;11.022;2023-05-07T10:11:22;18.90;75.30
28837;DHT22;50669;50.982;11.022;2023-05-07T10:13:48;18.90;75.40
28837;DHT22;50669;50.982;11.022;2023-05-07T10:16:14;18.90;75.40
28837;DHT22;50669;50.982;11.022;2023-05-07T10:18:43;18.90;75.40
28837;DHT22;50669;50.982;11.022;2023-05-07T10:21:19;18.90;75.40
28837;DHT22;50669;50.982;11.022;2023-05-07T10:23:50;18.90;75.40
28837;DHT22;50669;50.982;11.022;2023-05-07T10:26:17;18.90;75.40
28837;DHT22;50669;50.982;11.022;2023-05-07T10:28:46;18.90;75.40
28837;DHT22;50669;50.982;11.022;2023-05-07T10:34:02;18.90;75.40
28837;DHT22;50669;50.982;11.022;2023-05-07T10:36:32;18.90;75.40
28837;DHT22;50669;50.982;11.022;2023-05-07T10:38:59;18.90;75.40
28837;DHT22;50669;50.982;11.022;2023-05-07T10:41:25;18.90;75.40
28837;DHT22;50669;50.982;11.022;2023-05-07T10:43:51;18.90;75.40
28837;DHT22;50669;50.982;11.022;2023-05-07T10:46:19;18.90;75.40
28837;DHT22;50669;50.982;11.022;2023-05-07T10:49:07;18.90;75.40
28837;DHT22;50669;50.982;11.022;2023-05-07T10:51:34;18.90;75.30
28837;DHT22;50669;50.982;11.022;2023-05-07T10:56:40;18.90;75.40
28837;DHT22;50669;50.982;11.022;2023-05-07T11:02:04;18.90;75.40
28837;DHT22;50669;50.982;11.022;2023-05-07T11:04:32;18.90;75.30
28837;DHT22;50669;50.982;11.022;2023-05-07T11:15:03;18.90;75.40
28837;DHT22;50669;50.982;11.022;2023-05-07T11:17:29;18.90;75.40
28837;DHT22;50669;50.982;11.022;2023-05-07T11:20:03;18.90;75.30
28837;DHT22;50669;50.982;11.022;2023-05-07T11:25:05;18.90;75.40
28837;DHT22;50669;50.982;11.022;2023-05-07T11:27:34;18.90;75.30
28837;DHT22;50669;50.982;11.022;2023-05-07T11:30:02;18.90;75.40
28837;DHT22;50669;50.982;11.022;2023-05-07T11:32:30;18.90;76.10
28837;DHT22;50669;50.982;11.022;2023-05-07T11:34:57;18.90;75.30
28837;DHT22;50669;50.982;11.022;2023-05-07T11:37:24;18.90;75.30
28837;DHT22;50669;50.982;11.022;2023-05-07T11:40:09;18.90;75.30
28837;DHT22;50669;50.982;11.022;2023-05-07T11:42:40;18.90;75.40
28837;DHT22;50669;50.982;11.022;2023-05-07T11:45:10;18.90;75.30
28837;DHT22;50669;50.982;11.022;2023-05-07T11:47:36;18.90;75.30
28837;DHT22;50669;50.982;11.022;2023-05-07T11:50:05;18.90;75.20
28837;DHT22;50669;50.982;11.022;2023-05-07T11:52:35;18.90;75.20
28837;DHT22;50669;50.982;11.022;2023-05-07T11:55:04;18.90;75.20
28837;DHT22;50669;50.982;11.022;2023-05-07T11:57:30;18.90;75.30
28837;DHT22;50669;50.982;11.022;2023-05-07T12:00:01;18.90;75.20
28837;DHT22;50669;50.982;11.022;2023-05-07T12:02:34;18.90;75.20
28837;DHT22;50669;50.982;11.022;2023-05-07T12:05:03;18.90;75.20
28837;DHT22;50669;50.982;11.022;2023-05-07T12:07:33;18.90;75.20
28837;DHT22;50669;50.982;11.022;2023-05-07T12:10:04;18.90;75.30
28837;DHT22;50669;50.982;11.022;2023-05-07T12:12:38;18.90;75.20
28837;DHT22;50669;50.982;11.022;2023-05-07T12:15:05;18.90;75.20
28837;DHT22;50669;50.982;11.022;2023-05-07T12:17:33;19.00;75.30
28837;DHT22;50669;50.982;11.022;2023-05-07T12:19:59;19.00;75.30
28837;DHT22;50669;50.982;11.022;2023-05-07T12:22:25;19.00;75.30
28837;DHT22;50669;50.982;11.022;2023-05-07T12:24:58;18.90;75.20
28837;DHT22;50669;50.982;11.022;2023-05-07T12:27:24;18.90;75.20
28837;DHT22;50669;50.982;11.022;2023-05-07T12:29:50;18.90;75.20
28837;DHT22;50669;50.982;11.022;2023-05-07T12:32:18;18.90;75.20
28837;DHT22;50669;50.982;11.022;2023-05-07T12:34:44;18.90;75.20
28837;DHT22;50669;50.982;11.022;2023-05-07T12:37:10;19.00;75.30
28837;DHT22;50669;50.982;11.022;2023-05-07T12:39:42;19.00;75.20
28837;DHT22;50669;50.982;11.022;2023-05-07T12:42:09;19.00;75.30
28837;DHT22;50669;50.982;11.022;2023-05-07T12:44:40;19.00;75.30
28837;DHT22;50669;50.982;11.022;2023-05-07T12:47:05;18.90;75.10
28837;DHT22;50669;50.982;11.022;2023-05-07T12:49:34;19.00;75.30
28837;DHT22;50669;50.982;11.022;2023-05-07T12:52:05;19.00;75.30
28837;DHT22;50669;50.982;11.022;2023-05-07T12:54:36;18.90;75.30
28837;DHT22;50669;50.982;11.022;2023-05-07T12:59:39;18.90;75.20
28837;DHT22;50669;50.982;11.022;2023-05-07T13:02:05;19.00;75.30
28837;DHT22;50669;50.982;11.022;2023-05-07T13:04:31;19.00;75.30
28837;DHT22;50669;50.982;11.022;2023-05-07T13:06:58;19.00;75.30
28837;DHT22;50669;50.982;11.022;2023-05-07T13:09:24;19.00;75.30
28837;DHT22;50669;50.982;11.022;2023-05-07T13:11:52;19.00;75.30
28837;DHT22;50669;50.982;11.022;2023-05-07T13:14:20;19.00;75.20
28837;DHT22;50669;50.982;11.022;2023-05-07T13:16:49;19.00;75.30
28837;DHT22;50669;50.982;11.022;2023-05-07T13:19:14;19.00;75.20
28837;DHT22;50669;50.982;11.022;2023-05-07T13:21:42;19.00;75.10
28837;DHT22;50669;50.982;11.022;2023-05-07T13:24:10;19.10;75.20
28837;DHT22;50669;50.982;11.022;2023-05-07T13:26:36;19.10;75.10
28837;DHT22;50669;50.982;11.022;2023-05-07T13:29:06;19.10;75.10
28837;DHT22;50669;50.982;11.022;2023-05-07T13:31:34;19.10;75.10
28837;DHT22;50669;50.982;11.022;2023-05-07T13:34:01;19.10;75.00
28837;DHT22;50669;50.982;11.022;2023-05-07T13:36:26;19.10;75.00
28837;DHT22;50669;50.982;11.022;2023-05-07T13:38:52;19.10;75.00
28837;DHT22;50669;50.982;11.022;2023-05-07T13:41:17;19.10;75.00
28837;DHT22;50669;50.982;11.022;2023-05-07T13:43:43;19.10;75.00
28837;DHT22;50669;50.982;11.022;2023-05-07T13:46:09;19.10;75.10
28837;DHT22;50669;50.982;11.022;2023-05-07T13:48:36;19.10;75.10
28837;DHT22;50669;50.982;11.022;2023-05-07T13:51:05;19.10;75.10
28837;DHT22;50669;50.982;11.022;2023-05-07T13:53:30;19.10;75.10
28837;DHT22;50669;50.982;11.022;2023-05-07T13:55:58;19.10;75.10
28837;DHT22;50669;50.982;11.022;2023-05-07T13:58:24;19.10;75.20
28837;DHT22;50669;50.982;11.022;2023-05-07T14:00:49;19.00;75.10
28837;DHT22;50669;50.982;11.022;2023-05-07T14:03:15;19.00;75.10
28837;DHT22;50669;50.982;11.022;2023-05-07T14:05:42;19.00;75.10
28837;DHT22;50669;50.982;11.022;2023-05-07T14:08:10;19.00;75.10
28837;DHT22;50669;50.982;11.022;2023-05-07T14:10:38;19.10;75.20
28837;DHT22;50669;50.982;11.022;2023-05-07T14:13:08;19.10;75.10
28837;DHT22;50669;50.982;11.022;2023-05-07T14:15:34;19.10;75.10
28837;DHT22;50669;50.982;11.022;2023-05-07T14:18:00;19.10;75.10
28837;DHT22;50669;50.982;11.022;2023-05-07T14:20:28;19.10;75.10
28837;DHT22;50669;50.982;11.022;2023-05-07T14:22:55;19.10;75.10
28837;DHT22;50669;50.982;11.022;2023-05-07T14:25:21;19.10;74.90
28837;DHT22;50669;50.982;11.022;2023-05-07T14:27:47;19.20;75.00
28837;DHT22;50669;50.982;11.022;2023-05-07T14:30:12;19.20;74.80
28837;DHT22;50669;50.982;11.022;2023-05-07T14:32:38;19.30;74.80
28837;DHT22;50669;50.982;11.022;2023-05-07T14:35:04;19.30;74.60
28837;DHT22;50669;50.982;11.022;2023-05-07T14:37:30;19.40;74.60
28837;DHT22;50669;50.982;11.022;2023-05-07T14:39:55;19.40;74.70
28837;DHT22;50669;50.982;11.022;2023-05-07T14:42:21;19.30;74.60
28837;DHT22;50669;50.982;11.022;2023-05-07T14:44:47;19.30;74.60
28837;DHT22;50669;50.982;11.022;2023-05-07T14:47:14;19.40;74.70
28837;DHT22;50669;50.982;11.022;2023-05-07T14:49:40;19.30;74.60
28837;DHT22;50669;50.982;11.022;2023-05-07T14:52:08;19.40;74.70
28837;DHT22;50669;50.982;11.022;2023-05-07T14:54:39;19.30;74.60
28837;DHT22;50669;50.982;11.022;2023-05-07T14:57:06;19.30;75.10
28837;DHT22;50669;50.982;11.022;2023-05-07T14:59:32;19.30;74.70
28837;DHT22;50669;50.982;11.022;2023-05-07T15:01:59;19.30;74.70
28837;DHT22;50669;50.982;11.022;2023-05-07T15:04:27;19.30;74.70
28837;DHT22;50669;50.982;11.022;2023-05-07T15:06:53;19.30;74.60
28837;DHT22;50669;50.982;11.022;2023-05-07T15:09:21;19.30;74.70
28837;DHT22;50669;50.982;11.022;2023-05-07T15:11:49;19.30;74.70
28837;DHT22;50669;50.982;11.022;2023-05-07T15:14:18;19.30;74.70
28837;DHT22;50669;50.982;11.022;2023-05-07T15:16:43;19.30;74.70
28837;DHT22;50669;50.982;11.022;2023-05-07T15:19:09;19.30;74.80
28837;DHT22;50669;50.982;11.022;2023-05-07T15:21:37;19.30;74.70
28837;DHT22;50669;50.982;11.022;2023-05-07T15:24:03;19.30;74.80
28837;DHT22;50669;50.982;11.022;2023-05-07T15:26:28;19.30;74.80
28837;DHT22;50669;50.982;11.022;2023-05-07T15:28:54;19.30;74.70
28837;DHT22;50669;50.982;11.022;2023-05-07T15:31:25;19.30;74.80
28837;DHT22;50669;50.982;11.022;2023-05-07T15:33:51;19.30;74.80
28837;DHT22;50669;50.982;11.022;2023-05-07T15:36:20;19.30;74.80
28837;DHT22;50669;50.982;11.022;2023-05-07T15:38:48;19.30;74.90